»·PEaware :: N416JK KSMX-KBFL

N416JK :: KSMX-KBFL

FLIGHT INFORMATION

Flight Status: Arrived
Operator: Privately registered:
United States
More flights under this callsign
Pilot: John K. (4202)
Aircraft: CESSNA 207 TURBO STATIONAIR
(C207)
More flights by this aircraft type
Origin: KSMX Santa Maria Pub/Capt Hancock
United States
Destination: KBFL Meadows
United States
More flights between these airports :: More routes between these airports
Route: +BUELT4 FLW EHF
File this flight plan on PilotEdge
Remarks:
Altitude:
(Current/Filed)
9,000ft
Speed:
(Current/Filed)
140kts
Departed: 23-Sep-17 08:16 AM
Arrived: 23-Sep-17 09:21 AM
Distance/Time
Traveled:
76nm/1:05
Distance/Time
To Go:
Arrived

Flight Plot

Page will automatically refresh every two minutes.

Flight plan parsing failed; only flown route is shown


Map Options




Map Legend


Flown Route
Filed Route
Departure Airport
Arrival Airport
Navaid (VOR, NDB)
Fix

Horizontal Profiles

Position Reports

Time Latitude Longitude Heading Altitude Ground
Speed
23-Sep-17 08:12 34.895690 -120.444959 314 265ft 0kts
23-Sep-17 08:13 34.895690 -120.444959 314 265ft 0kts
23-Sep-17 08:14 34.895690 -120.444959 314 265ft 0kts
23-Sep-17 08:15 34.895690 -120.444959 314 265ft 0kts
23-Sep-17 08:16 34.895690 -120.444959 314 265ft 0kts
23-Sep-17 08:17 34.895352 -120.444753 155 265ft 17kts
23-Sep-17 08:18 34.893129 -120.444967 193 265ft 0kts
23-Sep-17 08:19 34.892895 -120.445079 210 265ft 14kts
23-Sep-17 08:20 34.907195 -120.460951 323 856ft 94kts
23-Sep-17 08:21 34.930793 -120.458204 52 1422ft 98kts
23-Sep-17 08:22 34.922695 -120.434353 188 2012ft 98kts
23-Sep-17 08:23 34.901899 -120.445237 202 2881ft 75kts
23-Sep-17 08:24 34.882859 -120.455298 202 3563ft 74kts
23-Sep-17 08:25 34.863626 -120.449698 148 3990ft 102kts
23-Sep-17 08:26 34.836970 -120.427643 144 3978ft 125kts
23-Sep-17 08:27 34.807861 -120.403671 144 3978ft 127kts
23-Sep-17 08:28 34.778314 -120.379456 143 3979ft 134kts
23-Sep-17 08:29 34.747629 -120.354407 143 4041ft 128kts
23-Sep-17 08:30 34.725464 -120.336301 138 5157ft 75kts
23-Sep-17 08:31 34.708932 -120.322388 138 5941ft 73kts
23-Sep-17 08:32 34.692075 -120.308429 138 6673ft 75kts
23-Sep-17 08:33 34.674732 -120.294219 138 7379ft 77kts
23-Sep-17 08:34 34.658106 -120.278278 91 8060ft 72kts
23-Sep-17 08:35 34.671925 -120.258241 37 8414ft 106kts
23-Sep-17 08:36 34.697925 -120.232013 35 8471ft 133kts
23-Sep-17 08:37 34.727378 -120.204188 34 8470ft 136kts
23-Sep-17 08:38 34.757654 -120.176170 34 8470ft 136kts
23-Sep-17 08:39 34.787357 -120.148785 35 8469ft 135kts
23-Sep-17 08:40 34.815121 -120.123160 34 8897ft 120kts
23-Sep-17 08:41 34.842971 -120.097522 34 9010ft 132kts
23-Sep-17 08:42 34.872273 -120.070454 34 9009ft 134kts
23-Sep-17 08:43 34.901886 -120.043082 34 9009ft 135kts
23-Sep-17 08:44 34.931780 -120.015436 34 9009ft 137kts
23-Sep-17 08:45 34.962328 -119.987166 34 9009ft 138kts
23-Sep-17 08:46 34.992804 -119.958935 34 9009ft 139kts
23-Sep-17 08:47 35.023615 -119.930360 35 9009ft 140kts
23-Sep-17 08:48 35.053528 -119.902588 35 9009ft 141kts
23-Sep-17 08:49 35.084588 -119.873723 35 9009ft 141kts
23-Sep-17 08:50 35.108102 -119.836635 55 9011ft 142kts
23-Sep-17 08:51 35.128994 -119.796091 55 9011ft 143kts
23-Sep-17 08:52 35.146741 -119.761379 53 9025ft 146kts
23-Sep-17 08:53 35.167951 -119.720217 55 9021ft 144kts
23-Sep-17 08:54 35.187403 -119.682253 55 9023ft 144kts
23-Sep-17 08:55 35.187403 -119.682253 55 9023ft 144kts
23-Sep-17 08:56 35.205512 -119.650106 56 9010ft 144kts
23-Sep-17 08:57 35.217629 -119.603588 67 8989ft 144kts
23-Sep-17 08:58 35.238363 -119.563073 54 8989ft 141kts
23-Sep-17 08:59 35.258806 -119.524730 55 8990ft 140kts
23-Sep-17 09:00 35.279759 -119.485239 55 8990ft 139kts
23-Sep-17 09:01 35.297069 -119.452620 55 8991ft 138kts
23-Sep-17 09:02 35.321351 -119.406812 55 8990ft 138kts
23-Sep-17 09:03 35.342356 -119.367136 55 8990ft 138kts
23-Sep-17 09:04 35.363181 -119.327755 55 8990ft 138kts
23-Sep-17 09:05 35.383936 -119.288465 55 8990ft 138kts
23-Sep-17 09:06 35.404706 -119.249100 55 8990ft 138kts
23-Sep-17 09:07 35.422113 -119.216074 55 8990ft 138kts
23-Sep-17 09:08 35.442853 -119.176685 55 8990ft 138kts
23-Sep-17 09:09 35.463627 -119.137186 55 8990ft 138kts
23-Sep-17 09:10 35.476555 -119.095433 120 8980ft 146kts
23-Sep-17 09:11 35.443964 -119.065616 144 8990ft 149kts
23-Sep-17 09:12 35.407761 -119.040469 161 8680ft 165kts
23-Sep-17 09:13 35.364807 -119.025729 161 7401ft 158kts
23-Sep-17 09:14 35.324711 -119.012370 161 5890ft 146kts
23-Sep-17 09:15 35.288237 -119.000207 162 4412ft 134kts
23-Sep-17 09:16 35.252266 -118.987431 150 3084ft 132kts
23-Sep-17 09:17 35.263084 -118.966285 354 3046ft 102kts
23-Sep-17 09:18 35.289552 -118.971387 352 3047ft 93kts
23-Sep-17 09:19 35.314753 -118.975044 357 2779ft 99kts
23-Sep-17 09:20 35.342009 -118.976487 353 2345ft 104kts
23-Sep-17 09:21 35.370984 -118.987076 333 1721ft 111kts
23-Sep-17 09:22 35.395155 -119.008783 313 1187ft 107kts
23-Sep-17 09:23 35.417127 -119.035478 313 931ft 90kts
23-Sep-17 09:24 35.432460 -119.054449 313 517ft 66kts
23-Sep-17 09:25 35.436281 -119.057733 63 508ft 0kts
23-Sep-17 09:26 35.435136 -119.055457 134 508ft 34kts
23-Sep-17 09:27 35.427734 -119.046473 117 507ft 18kts
23-Sep-17 09:28 35.429693 -119.046776 326 508ft 0kts

Navigation Log

Ident Type
Flight plan parsing failed, navigation log unavailable